createdAt,value
2023-02-02T06:00:29.504Z,76.00
2023-02-02T06:05:33.181Z,75.90
2023-02-02T06:10:36.834Z,75.60
2023-02-02T06:15:43.308Z,75.60
2023-02-02T06:20:47.760Z,76.00
2023-02-02T06:25:51.801Z,76.10
2023-02-02T06:30:56.777Z,75.90
2023-02-02T06:36:02.146Z,75.90
2023-02-02T06:41:06.973Z,76.20
2023-02-02T06:46:12.188Z,76.40
2023-02-02T06:51:15.966Z,76.20
2023-02-02T06:56:19.587Z,76.00
2023-02-02T07:01:24.721Z,75.80
2023-02-02T07:06:30.003Z,75.70
2023-02-02T07:11:37.386Z,75.80
2023-02-02T07:16:47.520Z,75.80
2023-02-02T07:21:51.202Z,75.70
2023-02-02T07:26:54.940Z,75.60
2023-02-02T07:32:00.050Z,75.40
2023-02-02T07:37:03.771Z,75.50
2023-02-02T07:42:08.760Z,75.70
2023-02-02T07:47:14.048Z,75.70
2023-02-02T07:52:17.662Z,75.60
2023-02-02T07:57:21.250Z,75.60
2023-02-02T08:02:26.374Z,75.60
2023-02-02T08:07:32.423Z,75.60
2023-02-02T08:12:36.113Z,75.40
2023-02-02T08:17:41.073Z,75.40
2023-02-02T08:22:44.748Z,75.30
2023-02-02T08:27:48.359Z,75.20
2023-02-02T08:32:53.358Z,75.10
2023-02-02T08:37:57.044Z,74.90
2023-02-02T08:43:00.991Z,75.00
2023-02-02T08:48:12.025Z,75.10
2023-02-02T08:53:16.308Z,75.00
2023-02-02T08:58:19.859Z,75.20
2023-02-02T09:03:24.855Z,75.20
2023-02-02T09:08:28.570Z,75.50
2023-02-02T09:13:32.205Z,75.40
2023-02-02T09:18:37.292Z,75.00
2023-02-02T09:23:43.045Z,74.90
2023-02-02T09:28:50.057Z,74.90
2023-02-02T09:33:55.084Z,74.60
2023-02-02T09:38:58.802Z,74.20
2023-02-02T09:44:09.632Z,74.20
2023-02-02T09:49:18.552Z,73.90
2023-02-02T09:54:27.945Z,73.40
2023-02-02T09:59:36.004Z,74.00
2023-02-02T10:04:45.172Z,74.00
2023-02-02T10:09:52.045Z,73.80
2023-02-02T10:15:01.310Z,73.60
2023-02-02T10:20:18.704Z,73.20
2023-02-02T10:25:27.565Z,73.00
2023-02-02T10:30:40.097Z,73.00
2023-02-02T10:36:39.191Z,72.90
2023-02-02T10:41:53.110Z,72.80
2023-02-02T10:46:59.666Z,72.60
2023-02-02T10:52:17.503Z,72.60
2023-02-02T10:57:35.638Z,72.30
2023-02-02T11:02:39.404Z,72.10
2023-02-02T11:07:43.052Z,71.90
2023-02-02T11:12:53.194Z,71.80
2023-02-02T11:17:56.936Z,71.70
2023-02-02T11:23:07.579Z,71.40
2023-02-02T11:28:21.836Z,71.40
2023-02-02T11:33:30.225Z,71.20
2023-02-02T11:38:34.156Z,71.20
2023-02-02T11:43:41.612Z,71.20
2023-02-02T11:48:52.165Z,71.10
2023-02-02T11:54:06.242Z,71.00
2023-02-02T11:59:30.035Z,70.60
2023-02-02T12:04:33.676Z,70.10
2023-02-02T12:09:37.323Z,70.20
2023-02-02T12:14:53.447Z,70.30
2023-02-02T12:20:19.550Z,70.00
2023-02-02T12:25:39.059Z,70.00
2023-02-02T12:30:51.486Z,69.90
2023-02-02T12:36:12.733Z,70.20
2023-02-02T12:41:31.641Z,70.00
2023-02-02T12:46:51.857Z,69.60
2023-02-02T12:52:11.355Z,69.80
2023-02-02T12:57:25.150Z,69.60
2023-02-02T13:02:36.179Z,69.60
2023-02-02T13:07:44.025Z,69.20
2023-02-02T13:12:53.240Z,69.10
2023-02-02T13:18:01.434Z,68.80
2023-02-02T13:23:10.934Z,68.70
2023-02-02T13:28:23.483Z,68.50
2023-02-02T13:33:33.312Z,68.20
2023-02-02T13:38:42.077Z,68.20
2023-02-02T13:43:53.988Z,68.20
2023-02-02T13:49:10.233Z,68.30
2023-02-02T13:54:54.147Z,68.20
2023-02-02T14:00:06.271Z,68.30
2023-02-02T14:05:24.355Z,68.30
2023-02-02T14:10:31.578Z,68.30
2023-02-02T14:15:40.652Z,68.30
2023-02-02T14:20:49.702Z,68.10
2023-02-02T14:26:07.023Z,68.10
2023-02-02T14:31:31.396Z,68.00
2023-02-02T14:36:40.397Z,68.00
2023-02-02T14:42:25.455Z,68.00
2023-02-02T14:47:49.580Z,68.10
2023-02-02T14:53:06.319Z,68.20
2023-02-02T14:58:10.931Z,68.10
2023-02-02T15:03:32.754Z,68.10
2023-02-02T15:08:37.993Z,68.10
2023-02-02T15:13:46.482Z,68.10
2023-02-02T15:18:59.066Z,68.00
2023-02-02T15:24:05.783Z,68.00
2023-02-02T15:29:17.422Z,67.90
2023-02-02T15:34:24.962Z,68.00
2023-02-02T15:39:33.866Z,68.20
2023-02-02T15:44:38.789Z,68.30
2023-02-02T15:49:42.996Z,68.20
2023-02-02T15:54:53.894Z,68.40
2023-02-02T15:59:57.951Z,68.40
2023-02-02T16:05:01.528Z,68.30
2023-02-02T16:10:09.141Z,68.40
2023-02-02T16:15:21.350Z,68.40
2023-02-02T16:20:24.933Z,68.50
2023-02-02T16:25:33.553Z,68.50
2023-02-02T16:30:40.067Z,68.50
2023-02-02T16:35:43.621Z,68.70
2023-02-02T16:40:48.818Z,68.80
2023-02-02T16:45:55.135Z,68.90
2023-02-02T16:51:14.713Z,68.80
2023-02-02T16:56:28.351Z,68.80
2023-02-02T17:01:39.480Z,68.70
2023-02-02T17:06:52.305Z,68.80
2023-02-02T17:11:59.934Z,68.90
2023-02-02T17:17:06.268Z,69.10
2023-02-02T17:22:10.743Z,69.30
2023-02-02T17:27:18.599Z,69.40
2023-02-02T17:32:23.582Z,69.50
2023-02-02T17:37:27.115Z,69.40
2023-02-02T17:42:32.361Z,69.40
2023-02-02T17:47:37.571Z,69.30
2023-02-02T17:52:41.401Z,69.40
2023-02-02T17:57:47.299Z,69.40
2023-02-02T18:02:55.245Z,69.70
2023-02-02T18:08:00.043Z,70.00
2023-02-02T18:13:05.219Z,70.40
2023-02-02T18:18:08.752Z,70.70
2023-02-02T18:23:12.514Z,70.80
2023-02-02T18:28:18.082Z,70.80
2023-02-02T18:33:23.343Z,70.80
2023-02-02T18:38:26.889Z,70.90
2023-02-02T18:43:31.933Z,70.80
2023-02-02T18:48:36.333Z,70.80
2023-02-02T18:53:39.834Z,70.90
2023-02-02T18:58:45.218Z,71.10
2023-02-02T19:03:50.151Z,70.90
2023-02-02T19:08:54.729Z,70.80
2023-02-02T19:14:00.792Z,70.90
2023-02-02T19:19:12.757Z,71.00
2023-02-02T19:24:16.210Z,71.10
2023-02-02T19:29:22.785Z,70.90
2023-02-02T19:34:26.368Z,70.70
2023-02-02T19:39:32.245Z,70.70
2023-02-02T19:44:38.993Z,70.70
2023-02-02T19:49:42.724Z,70.50
2023-02-02T19:54:49.082Z,70.60
2023-02-02T19:59:54.937Z,70.60
2023-02-02T20:05:03.957Z,70.60
2023-02-02T20:10:21.377Z,70.80
2023-02-02T20:15:36.512Z,70.90
2023-02-02T20:20:44.069Z,70.90
2023-02-02T20:25:47.686Z,71.10
2023-02-02T20:30:55.632Z,71.10
2023-02-02T20:35:59.196Z,71.10
2023-02-02T20:41:04.527Z,71.10
2023-02-02T20:46:09.471Z,70.80
2023-02-02T20:51:13.036Z,70.60
2023-02-02T20:56:17.034Z,70.50
2023-02-02T21:01:23.382Z,70.50
2023-02-02T21:06:28.687Z,70.20
2023-02-02T21:11:32.382Z,70.10
2023-02-02T21:16:37.761Z,70.50
2023-02-02T21:21:41.388Z,69.90
2023-02-02T21:26:45.028Z,70.40
2023-02-02T21:31:50.129Z,69.90
2023-02-02T21:36:58.032Z,69.80
2023-02-02T21:42:14.960Z,69.90
2023-02-02T21:47:27.895Z,69.80
2023-02-02T21:52:34.712Z,69.70
2023-02-02T21:57:38.650Z,69.60
2023-02-02T22:02:45.734Z,69.60
2023-02-02T22:07:51.051Z,69.60
2023-02-02T22:12:54.657Z,69.80
2023-02-02T22:17:59.774Z,69.70
2023-02-02T22:23:04.343Z,69.50
2023-02-02T22:28:14.328Z,69.70
2023-02-02T22:33:19.247Z,69.70
2023-02-02T22:38:25.137Z,69.40
2023-02-02T22:43:28.745Z,69.50
2023-02-02T22:48:33.616Z,69.50
2023-02-02T22:53:37.127Z,69.30
2023-02-02T22:58:40.862Z,69.50
2023-02-02T23:03:47.479Z,69.50
2023-02-02T23:08:51.023Z,68.60
2023-02-02T23:13:54.515Z,69.50
2023-02-02T23:18:59.406Z,69.60
2023-02-02T23:24:02.877Z,69.80
2023-02-02T23:29:06.353Z,69.80
